Time;durP1;ratioP1;P1;durP2;ratioP2;P2;SDS_P1;SDS_P2;PMS_P1;PMS_P2;Temp;Humidity;BMP_temperature;BMP_pressure;BME280_temperature;BME280_humidity;BME280_pressure;Samples;Min_cycle;Max_cycle;Signal;HPM_P1;HPM_P2
2022/06/10 00:01:08;;;;;;;9.18;3.63;;;;;;;;;;5133753;27;20130;-76
2022/06/10 00:03:35;;;;;;;8.85;3.70;;;;;;;;;;5100549;27;20091;-76
2022/06/10 00:06:04;;;;;;;8.20;3.25;;;;;;;;;;5117931;28;20042;-76
2022/06/10 00:08:36;;;;;;;7.72;3.65;;;;;;;;;;5132405;27;20074;-76
2022/06/10 00:11:03;;;;;;;9.98;3.60;;;;;;;;;;5125332;28;20042;-76
2022/06/10 00:13:30;;;;;;;8.05;3.30;;;;;;;;;;5095527;28;20046;-76
2022/06/10 00:15:57;;;;;;;8.20;3.53;;;;;;;;;;5128973;27;20045;-76
2022/06/10 00:18:24;;;;;;;7.22;3.47;;;;;;;;;;5116372;27;20042;-76
2022/06/10 00:20:50;;;;;;;8.57;3.75;;;;;;;;;;5108663;28;20122;-76
2022/06/10 00:23:17;;;;;;;10.77;3.85;;;;;;;;;;5124472;27;20439;-76
2022/06/10 00:25:45;;;;;;;10.02;3.65;;;;;;;;;;5117266;28;20505;-76
2022/06/10 00:28:11;;;;;;;9.57;3.88;;;;;;;;;;5098515;27;20034;-76
2022/06/10 00:30:38;;;;;;;7.40;3.47;;;;;;;;;;5133261;27;20440;-76
2022/06/10 00:33:06;;;;;;;9.98;4.00;;;;;;;;;;5133259;27;20087;-76
2022/06/10 00:35:32;;;;;;;9.63;3.55;;;;;;;;;;5117805;28;20092;-76
2022/06/10 00:37:59;;;;;;;9.82;3.72;;;;;;;;;;5112035;27;20038;-76
2022/06/10 00:40:27;;;;;;;10.32;4.18;;;;;;;;;;5112191;28;20039;-76
2022/06/10 00:42:56;;;;;;;10.93;3.97;;;;;;;;;;5122852;27;20126;-76
2022/06/10 00:45:41;;;;;;;8.80;3.72;;;;;;;;;;5133014;27;20034;-76
2022/06/10 00:48:07;;;;;;;;;;;;;;;;;;5103301;27;20118;-76
2022/06/10 00:50:33;;;;;;;8.23;3.35;;;;;;;;;;5123867;28;19999;-76
2022/06/10 00:53:02;;;;;;;15.55;4.13;;;;;;;;;;5095384;28;20039;-76
2022/06/10 00:55:29;;;;;;;11.98;3.92;;;;;;;;;;5129157;27;20540;-76
2022/06/10 00:58:04;;;;;;;10.38;3.65;;;;;;;;;;5117018;27;20117;-76
2022/06/10 01:00:30;;;;;;;10.68;4.03;;;;;;;;;;5133164;27;20049;-76
2022/06/10 01:02:57;;;;;;;10.07;4.00;;;;;;;;;;5121916;27;20039;-76
2022/06/10 01:05:24;;;;;;;9.65;4.15;;;;;;;;;;5132963;27;20573;-76
2022/06/10 01:08:11;;;;;;;7.65;4.18;;;;;;;;;;5121372;27;20050;-76
2022/06/10 01:10:47;;;;;;;12.32;4.38;;;;;;;;;;5123640;27;20047;-76
2022/06/10 01:13:13;;;;;;;9.52;4.10;;;;;;;;;;5132572;27;20030;-76
2022/06/10 01:15:46;;;;;;;9.60;4.45;;;;;;;;;;5121254;27;20501;-76
2022/06/10 01:18:21;;;;;;;8.85;4.35;;;;;;;;;;5136092;27;20042;-76
2022/06/10 01:21:06;;;;;;;9.80;4.30;;;;;;;;;;5136389;27;20135;-76
2022/06/10 01:23:42;;;;;;;9.50;3.88;;;;;;;;;;5128968;27;20043;-76
2022/06/10 01:29:43;;;;;;;9.32;4.63;;;;;;;;;;5076399;27;20068;-76
2022/06/10 01:32:12;;;;;;;12.13;4.78;;;;;;;;;;5122391;27;20030;-76
2022/06/10 01:34:46;;;;;;;10.63;4.50;;;;;;;;;;5112782;27;20061;-76
2022/06/10 01:37:18;;;;;;;9.95;4.35;;;;;;;;;;5102764;27;20042;-76
2022/06/10 01:39:47;;;;;;;8.07;4.68;;;;;;;;;;5124674;27;20381;-76
2022/06/10 01:42:26;;;;;;;11.30;4.68;;;;;;;;;;5127551;27;20057;-76
2022/06/10 01:45:15;;;;;;;11.73;4.70;;;;;;;;;;5131190;27;20514;-76
2022/06/10 01:47:48;;;;;;;9.73;4.50;;;;;;;;;;5093787;27;20058;-76
2022/06/10 01:50:26;;;;;;;10.07;4.45;;;;;;;;;;5118254;27;20047;-76
2022/06/10 01:52:56;;;;;;;9.80;4.55;;;;;;;;;;5100819;27;20039;-76
2022/06/10 01:55:26;;;;;;;12.77;4.57;;;;;;;;;;5124855;27;20043;-76
2022/06/10 01:58:03;;;;;;;11.23;4.10;;;;;;;;;;5126677;27;20422;-76
2022/06/10 02:00:31;;;;;;;8.52;4.20;;;;;;;;;;5117251;27;20035;-76
2022/06/10 02:03:03;;;;;;;11.95;4.65;;;;;;;;;;5120713;27;20024;-76
2022/06/10 02:05:31;;;;;;;11.75;4.43;;;;;;;;;;5107312;27;20379;-76
2022/06/10 02:07:58;;;;;;;11.57;4.72;;;;;;;;;;5118106;27;20095;-76
2022/06/10 02:10:29;;;;;;;12.82;5.15;;;;;;;;;;5129282;27;20550;-76
2022/06/10 02:13:01;;;;;;;9.68;4.60;;;;;;;;;;5101879;27;20126;-76
2022/06/10 02:15:30;;;;;;;11.70;4.80;;;;;;;;;;5120931;27;20039;-76
2022/06/10 02:18:00;;;;;;;9.82;4.50;;;;;;;;;;5129338;27;20098;-76
2022/06/10 02:20:28;;;;;;;8.23;4.25;;;;;;;;;;5109797;28;20510;-76
2022/06/10 02:22:55;;;;;;;15.77;5.05;;;;;;;;;;5121512;27;20054;-76
2022/06/10 02:25:27;;;;;;;9.98;4.18;;;;;;;;;;5120743;27;20461;-76
2022/06/10 02:27:55;;;;;;;12.68;5.25;;;;;;;;;;5084069;27;20128;-76
2022/06/10 02:30:25;;;;;;;8.98;4.10;;;;;;;;;;5127840;27;20402;-76
2022/06/10 02:32:52;;;;;;;10.63;4.63;;;;;;;;;;5122004;27;20042;-76
2022/06/10 02:35:19;;;;;;;10.27;4.72;;;;;;;;;;5118871;27;20042;-76
2022/06/10 02:37:46;;;;;;;8.88;4.57;;;;;;;;;;5128470;27;20144;-76
2022/06/10 02:40:27;;;;;;;9.60;5.00;;;;;;;;;;5117303;27;20105;-76
2022/06/10 02:43:08;;;;;;;11.60;5.32;;;;;;;;;;5104264;27;20046;-76
2022/06/10 02:45:43;;;;;;;10.10;5.00;;;;;;;;;;5129277;27;20054;-76
2022/06/10 02:48:09;;;;;;;;;;;;;;;;;;5120227;27;20172;-76
2022/06/10 02:50:35;;;;;;;10.10;4.80;;;;;;;;;;5124638;27;20376;-76
2022/06/10 02:53:03;;;;;;;11.90;5.47;;;;;;;;;;5114336;27;20482;-76
2022/06/10 02:55:30;;;;;;;9.85;4.97;;;;;;;;;;5130572;27;20460;-76
2022/06/10 03:03:51;;;;;;;9.23;4.78;;;;;;;;;;5130671;27;20482;-76
2022/06/10 03:06:25;;;;;;;11.43;4.88;;;;;;;;;;5123422;27;20379;-76
2022/06/10 03:08:59;;;;;;;12.50;5.60;;;;;;;;;;5118941;27;20070;-76
2022/06/10 03:11:40;;;;;;;11.43;5.10;;;;;;;;;;5116534;27;20613;-76
2022/06/10 03:14:19;;;;;;;9.10;5.53;;;;;;;;;;5124957;27;20049;-76
2022/06/10 03:16:45;;;;;;;10.02;5.60;;;;;;;;;;5111363;27;20102;-76
2022/06/10 03:19:17;;;;;;;12.45;6.22;;;;;;;;;;5117303;27;20031;-76
2022/06/10 03:21:49;;;;;;;9.52;5.50;;;;;;;;;;5127088;27;20432;-75
2022/06/10 03:24:29;;;;;;;10.18;5.47;;;;;;;;;;5124988;27;20042;-76
2022/06/10 03:27:22;;;;;;;13.10;5.90;;;;;;;;;;5117126;27;20091;-75
2022/06/10 03:29:50;;;;;;;11.82;6.05;;;;;;;;;;5128941;27;20494;-75
2022/06/10 03:32:28;;;;;;;10.80;5.53;;;;;;;;;;5120725;27;20070;-75
2022/06/10 03:35:16;;;;;;;12.63;5.80;;;;;;;;;;5129933;27;20058;-75
2022/06/10 03:37:42;;;;;;;13.13;5.70;;;;;;;;;;5122051;27;20550;-75
2022/06/10 03:40:15;;;;;;;12.68;5.57;;;;;;;;;;5119942;27;20035;-75
2022/06/10 03:42:45;;;;;;;13.73;5.35;;;;;;;;;;5129749;27;20069;-75
2022/06/10 03:45:14;;;;;;;13.60;5.75;;;;;;;;;;5101793;27;20087;-76
2022/06/10 03:47:40;;;;;;;10.95;6.22;;;;;;;;;;5123260;27;20517;-76
2022/06/10 03:50:08;;;;;;;9.85;5.55;;;;;;;;;;5112960;27;20192;-76
2022/06/10 03:52:36;;;;;;;11.63;5.07;;;;;;;;;;5114886;27;20505;-76
2022/06/10 03:55:02;;;;;;;9.60;5.13;;;;;;;;;;5127001;27;20035;-76
2022/06/10 03:57:28;;;;;;;10.38;5.53;;;;;;;;;;5112647;28;20050;-75
2022/06/10 03:59:54;;;;;;;11.25;5.07;;;;;;;;;;5126897;27;20047;-75
2022/06/10 04:02:21;;;;;;;10.52;5.40;;;;;;;;;;5131894;27;20039;-76
2022/06/10 04:04:47;;;;;;;12.07;5.70;;;;;;;;;;5112833;28;20549;-76
2022/06/10 04:07:16;;;;;;;12.23;5.22;;;;;;;;;;5122232;27;20121;-76
2022/06/10 04:09:42;;;;;;;11.43;5.72;;;;;;;;;;5119156;28;20051;-76
2022/06/10 04:12:09;;;;;;;11.30;5.30;;;;;;;;;;5112579;28;20039;-76
2022/06/10 04:14:36;;;;;;;11.88;5.63;;;;;;;;;;5113061;28;20055;-76
2022/06/10 04:17:02;;;;;;;11.20;5.10;;;;;;;;;;5121698;27;20035;-76
2022/06/10 04:19:28;;;;;;;9.50;5.38;;;;;;;;;;5133186;27;20043;-76
2022/06/10 04:21:54;;;;;;;9.02;4.80;;;;;;;;;;5116655;27;20589;-76
2022/06/10 04:24:21;;;;;;;10.63;5.35;;;;;;;;;;5115922;27;20066;-76
2022/06/10 04:26:48;;;;;;;10.95;5.07;;;;;;;;;;5124380;28;20046;-76
2022/06/10 04:29:15;;;;;;;14.18;5.50;;;;;;;;;;5095280;28;20069;-76
2022/06/10 04:31:41;;;;;;;10.07;5.30;;;;;;;;;;5129359;27;20519;-76
2022/06/10 04:34:07;;;;;;;9.85;5.22;;;;;;;;;;5128940;28;20031;-76
2022/06/10 04:36:33;;;;;;;8.90;5.18;;;;;;;;;;5122644;27;20074;-75
2022/06/10 04:39:18;;;;;;;10.93;4.95;;;;;;;;;;5124759;27;20070;-76
2022/06/10 04:41:45;;;;;;;11.40;4.78;;;;;;;;;;5135311;27;20536;-76
2022/06/10 04:44:11;;;;;;;11.80;5.80;;;;;;;;;;5113939;27;20039;-75
2022/06/10 04:46:39;;;;;;;11.10;5.10;;;;;;;;;;5124516;27;20393;-75
2022/06/10 04:49:06;;;;;;;13.13;5.20;;;;;;;;;;5120708;27;20498;-75
2022/06/10 04:51:33;;;;;;;12.20;5.38;;;;;;;;;;5113854;27;20035;-76
2022/06/10 04:53:59;;;;;;;14.35;5.55;;;;;;;;;;5119946;27;20291;-76
2022/06/10 04:56:26;;;;;;;10.75;5.57;;;;;;;;;;5119015;27;20035;-75
2022/06/10 04:58:52;;;;;;;10.95;5.22;;;;;;;;;;5090276;27;20323;-76
2022/06/10 05:01:18;;;;;;;12.15;5.55;;;;;;;;;;5131516;27;20435;-75
2022/06/10 05:03:45;;;;;;;12.20;5.65;;;;;;;;;;5102208;27;20038;-75
2022/06/10 05:06:11;;;;;;;10.40;5.07;;;;;;;;;;5125842;27;20118;-75
2022/06/10 05:08:38;;;;;;;12.00;5.50;;;;;;;;;;5123847;27;20061;-75
2022/06/10 05:11:04;;;;;;;10.57;5.07;;;;;;;;;;5115120;27;20365;-75
2022/06/10 05:13:30;;;;;;;11.45;5.18;;;;;;;;;;5109604;28;20043;-76
2022/06/10 05:15:56;;;;;;;12.20;5.50;;;;;;;;;;5101710;27;20054;-76
2022/06/10 05:18:24;;;;;;;13.73;5.82;;;;;;;;;;5101409;28;20388;-75
2022/06/10 05:20:50;;;;;;;14.45;6.03;;;;;;;;;;5109832;27;20039;-76
2022/06/10 05:23:18;;;;;;;13.13;5.82;;;;;;;;;;5080417;27;20071;-75
2022/06/10 05:25:44;;;;;;;12.27;5.55;;;;;;;;;;5105601;28;20048;-76
2022/06/10 05:28:12;;;;;;;13.57;5.38;;;;;;;;;;5104848;27;20043;-76
2022/06/10 05:30:38;;;;;;;12.18;5.22;;;;;;;;;;5097348;28;20039;-76
2022/06/10 05:33:06;;;;;;;14.00;6.20;;;;;;;;;;5109673;28;20439;-75
2022/06/10 05:35:33;;;;;;;19.02;6.35;;;;;;;;;;5100637;27;20123;-75
2022/06/10 05:37:59;;;;;;;13.70;6.10;;;;;;;;;;5101418;28;20043;-75
2022/06/10 05:40:27;;;;;;;13.13;6.20;;;;;;;;;;5108717;27;20041;-75
2022/06/10 05:42:53;;;;;;;17.15;6.28;;;;;;;;;;5079836;27;20043;-76
2022/06/10 05:45:20;;;;;;;19.02;7.03;;;;;;;;;;5088923;28;20513;-76
2022/06/10 05:47:47;;;;;;;12.85;6.00;;;;;;;;;;5103760;27;20051;-76
2022/06/10 05:50:15;;;;;;;14.57;5.88;;;;;;;;;;5097415;28;20035;-75
2022/06/10 05:52:42;;;;;;;13.35;6.43;;;;;;;;;;5109536;28;20039;-76
2022/06/10 05:55:09;;;;;;;17.65;6.30;;;;;;;;;;5099890;27;20510;-76
2022/06/10 05:57:35;;;;;;;13.52;5.55;;;;;;;;;;5093400;28;20534;-76
2022/06/10 06:00:02;;;;;;;14.73;5.88;;;;;;;;;;5107654;27;20038;-76
2022/06/10 06:02:29;;;;;;;12.65;5.35;;;;;;;;;;5096244;27;20040;-75
2022/06/10 06:04:58;;;;;;;11.25;5.10;;;;;;;;;;5102204;28;20046;-76
2022/06/10 06:07:26;;;;;;;13.00;5.90;;;;;;;;;;5073359;28;20071;-76
2022/06/10 06:09:52;;;;;;;16.08;5.88;;;;;;;;;;5080375;28;20048;-76
2022/06/10 06:12:19;;;;;;;12.40;5.65;;;;;;;;;;5111071;27;20456;-76
2022/06/10 06:14:45;;;;;;;11.73;5.22;;;;;;;;;;5093234;27;20410;-76
2022/06/10 06:17:12;;;;;;;10.75;5.05;;;;;;;;;;5101957;27;20088;-76
2022/06/10 06:19:39;;;;;;;12.20;5.53;;;;;;;;;;5095763;28;20043;-75
2022/06/10 06:22:05;;;;;;;11.80;5.20;;;;;;;;;;5114061;27;20128;-77
2022/06/10 06:24:33;;;;;;;16.20;6.45;;;;;;;;;;5118522;27;20036;-76
2022/06/10 06:27:00;;;;;;;11.80;5.60;;;;;;;;;;5119357;27;20035;-76
2022/06/10 06:29:26;;;;;;;13.13;6.00;;;;;;;;;;5117292;27;20039;-76
2022/06/10 06:31:52;;;;;;;12.15;5.80;;;;;;;;;;5099932;27;20130;-76
2022/06/10 06:34:22;;;;;;;14.60;5.28;;;;;;;;;;5094614;27;20035;-77
2022/06/10 06:36:49;;;;;;;11.60;4.90;;;;;;;;;;5103932;27;20035;-76
2022/06/10 06:39:18;;;;;;;10.50;5.15;;;;;;;;;;5113278;27;20036;-77
2022/06/10 06:41:44;;;;;;;15.15;4.93;;;;;;;;;;5105333;28;20109;-77
2022/06/10 06:44:11;;;;;;;14.38;5.05;;;;;;;;;;5107780;27;20467;-77
2022/06/10 06:46:38;;;;;;;13.50;4.78;;;;;;;;;;5108424;28;20036;-77
2022/06/10 06:49:06;;;;;;;15.00;5.40;;;;;;;;;;5105112;28;20043;-77
2022/06/10 06:51:33;;;;;;;12.15;4.95;;;;;;;;;;5109320;27;20042;-77
2022/06/10 06:53:59;;;;;;;11.38;4.95;;;;;;;;;;5112731;27;20057;-76
2022/06/10 06:56:26;;;;;;;11.88;5.10;;;;;;;;;;5119819;27;20069;-76
2022/06/10 06:58:52;;;;;;;12.73;5.05;;;;;;;;;;5107280;28;20042;-77
2022/06/10 07:01:18;;;;;;;13.82;5.57;;;;;;;;;;5101207;27;20123;-77
2022/06/10 07:03:45;;;;;;;14.18;5.22;;;;;;;;;;5105321;27;20039;-76
2022/06/10 07:06:11;;;;;;;11.55;4.72;;;;;;;;;;5110716;27;20032;-76
2022/06/10 07:08:37;;;;;;;15.88;5.30;;;;;;;;;;5112165;27;20060;-76
2022/06/10 07:11:05;;;;;;;14.50;5.80;;;;;;;;;;5119381;27;20130;-77
2022/06/10 07:13:32;;;;;;;12.18;4.85;;;;;;;;;;5120389;27;20035;-76
2022/06/10 07:15:59;;;;;;;12.32;5.22;;;;;;;;;;5115361;27;20036;-77
2022/06/10 07:18:25;;;;;;;13.52;5.70;;;;;;;;;;5121700;27;20035;-77
2022/06/10 07:20:51;;;;;;;12.95;5.35;;;;;;;;;;5110627;27;20074;-76
2022/06/10 07:23:19;;;;;;;16.38;6.90;;;;;;;;;;5124257;27;20039;-76
2022/06/10 07:25:45;;;;;;;13.95;5.65;;;;;;;;;;5114843;27;20050;-77
2022/06/10 07:28:11;;;;;;;15.13;6.82;;;;;;;;;;5120031;27;20152;-76
2022/06/10 07:30:39;;;;;;;16.05;7.88;;;;;;;;;;5094528;28;20046;-76
2022/06/10 07:33:06;;;;;;;14.10;7.50;;;;;;;;;;5077814;27;20039;-77
2022/06/10 07:35:32;;;;;;;22.35;8.90;;;;;;;;;;5103072;28;20089;-76
2022/06/10 07:37:58;;;;;;;15.40;7.50;;;;;;;;;;5119697;27;20067;-77
2022/06/10 07:43:13;;;;;;;14.18;8.40;;;;;;;;;;5099967;27;20046;-77
2022/06/10 07:45:39;;;;;;;15.65;8.95;;;;;;;;;;5117981;27;20491;-77
2022/06/10 07:48:06;;;;;;;17.00;8.30;;;;;;;;;;5122325;27;20473;-77
2022/06/10 07:50:33;;;;;;;17.45;8.80;;;;;;;;;;5094540;27;20036;-77
2022/06/10 07:52:59;;;;;;;14.50;9.13;;;;;;;;;;5122203;27;20043;-77
2022/06/10 07:55:25;;;;;;;18.05;8.65;;;;;;;;;;5100602;27;20035;-77
2022/06/10 07:57:51;;;;;;;16.08;8.73;;;;;;;;;;5114043;27;20415;-77
2022/06/10 08:00:18;;;;;;;15.35;8.05;;;;;;;;;;5123945;27;20039;-76
2022/06/10 08:02:44;;;;;;;17.58;8.98;;;;;;;;;;5112591;28;20031;-77
2022/06/10 08:05:13;;;;;;;15.98;8.27;;;;;;;;;;5118854;28;20510;-77
2022/06/10 08:07:40;;;;;;;12.43;8.15;;;;;;;;;;5121753;28;20486;-77
2022/06/10 08:10:08;;;;;;;11.98;7.47;;;;;;;;;;5112576;27;20063;-77
2022/06/10 08:12:34;;;;;;;16.02;7.82;;;;;;;;;;5126796;27;20047;-78
2022/06/10 08:15:01;;;;;;;18.15;7.88;;;;;;;;;;5104134;27;20542;-77
2022/06/10 08:17:27;;;;;;;13.77;7.75;;;;;;;;;;5115259;27;20040;-78
2022/06/10 08:19:53;;;;;;;13.13;7.25;;;;;;;;;;5101817;27;20034;-77
2022/06/10 08:22:35;;;;;;;16.33;8.88;;;;;;;;;;5128168;27;20035;-78
2022/06/10 08:25:03;;;;;;;14.27;7.90;;;;;;;;;;5115057;27;20167;-77
2022/06/10 08:27:29;;;;;;;14.10;8.13;;;;;;;;;;5116770;27;20491;-78
2022/06/10 08:29:56;;;;;;;16.52;8.48;;;;;;;;;;5128175;27;20035;-77
2022/06/10 08:32:23;;;;;;;13.57;7.63;;;;;;;;;;5100728;27;20035;-77
2022/06/10 08:34:49;;;;;;;14.60;7.75;;;;;;;;;;5121638;27;20046;-77
2022/06/10 08:37:16;;;;;;;16.08;9.15;;;;;;;;;;5125547;27;20078;-77
2022/06/10 08:39:42;;;;;;;17.27;8.10;;;;;;;;;;5115261;27;20088;-77
2022/06/10 08:42:08;;;;;;;14.95;8.00;;;;;;;;;;5124467;27;20104;-77
2022/06/10 08:44:45;;;;;;;15.30;9.05;;;;;;;;;;5121851;27;20039;-78
2022/06/10 08:47:35;;;;;;;17.13;9.15;;;;;;;;;;5126433;27;20078;-77
2022/06/10 08:50:10;;;;;;;13.52;8.68;;;;;;;;;;5033318;28;20051;-77
2022/06/10 08:52:38;;;;;;;15.75;8.80;;;;;;;;;;5105030;27;20086;-76
2022/06/10 08:55:19;;;;;;;15.43;8.82;;;;;;;;;;5115951;27;20054;-78
2022/06/10 08:57:46;;;;;;;14.82;8.63;;;;;;;;;;5099996;27;20035;-77
2022/06/10 09:00:22;;;;;;;15.60;8.98;;;;;;;;;;5105538;28;20525;-78
2022/06/10 09:02:48;;;;;;;15.32;9.13;;;;;;;;;;5107773;27;20062;-77
2022/06/10 09:05:27;;;;;;;18.15;8.40;;;;;;;;;;5114418;27;20036;-77
2022/06/10 09:08:00;;;;;;;14.60;8.70;;;;;;;;;;5124068;27;20035;-78
2022/06/10 09:10:34;;;;;;;15.82;8.48;;;;;;;;;;5122632;27;20165;-78
2022/06/10 09:13:00;;;;;;;15.52;8.25;;;;;;;;;;5114284;27;20108;-78
2022/06/10 09:15:28;;;;;;;16.73;8.60;;;;;;;;;;5099519;28;20042;-78
2022/06/10 09:17:58;;;;;;;12.05;7.75;;;;;;;;;;5112280;28;20399;-78
2022/06/10 09:20:28;;;;;;;17.45;8.27;;;;;;;;;;5119858;27;20088;-77
2022/06/10 09:23:00;;;;;;;13.90;7.53;;;;;;;;;;5091569;28;20036;-78
2022/06/10 09:25:53;;;;;;;12.57;8.07;;;;;;;;;;5091970;28;20087;-77
2022/06/10 09:28:19;;;;;;;15.85;8.20;;;;;;;;;;5114596;27;20122;-77
2022/06/10 09:30:46;;;;;;;13.93;7.63;;;;;;;;;;5095182;28;20384;-78
2022/06/10 09:33:12;;;;;;;14.38;7.70;;;;;;;;;;5109375;28;20122;-78
2022/06/10 09:35:46;;;;;;;16.00;8.00;;;;;;;;;;5119531;27;20556;-77
2022/06/10 09:38:15;;;;;;;18.17;8.20;;;;;;;;;;5116175;27;20063;-77
2022/06/10 09:40:45;;;;;;;13.90;7.43;;;;;;;;;;5123425;27;20031;-78
2022/06/10 09:43:20;;;;;;;14.85;7.32;;;;;;;;;;5127263;27;20491;-78
2022/06/10 09:46:13;;;;;;;13.05;7.72;;;;;;;;;;5110198;28;20039;-77
2022/06/10 09:48:55;;;;;;;15.55;7.65;;;;;;;;;;5079154;27;20392;-78
2022/06/10 09:51:27;;;;;;;14.70;8.02;;;;;;;;;;5119513;27;20035;-77
2022/06/10 09:54:02;;;;;;;14.27;7.78;;;;;;;;;;5123706;27;20036;-78
2022/06/10 09:56:55;;;;;;;12.73;7.40;;;;;;;;;;5089331;28;20555;-77
2022/06/10 09:59:27;;;;;;;13.38;7.60;;;;;;;;;;5098314;27;20047;-77
2022/06/10 10:02:12;;;;;;;14.18;8.15;;;;;;;;;;5114385;27;20042;-77
2022/06/10 10:04:38;;;;;;;;;;;;;;;;;;5093680;28;20032;-76
2022/06/10 10:07:11;;;;;;;15.80;8.15;;;;;;;;;;5101356;27;20427;-77
2022/06/10 10:09:40;;;;;;;12.15;7.22;;;;;;;;;;5098659;28;20105;-76
2022/06/10 10:12:09;;;;;;;16.75;8.18;;;;;;;;;;5110419;27;20043;-77
2022/06/10 10:14:46;;;;;;;12.88;7.93;;;;;;;;;;5110987;27;20032;-77
2022/06/10 10:17:36;;;;;;;14.27;7.47;;;;;;;;;;5107748;27;20044;-77
2022/06/10 10:20:14;;;;;;;12.43;6.90;;;;;;;;;;5109610;27;20051;-78
2022/06/10 10:22:53;;;;;;;13.52;7.32;;;;;;;;;;5109651;27;20044;-79
2022/06/10 10:25:23;;;;;;;14.93;7.35;;;;;;;;;;5123284;27;20035;-77
2022/06/10 10:27:49;;;;;;;13.00;7.35;;;;;;;;;;5094496;28;20031;-77
2022/06/10 10:30:20;;;;;;;11.90;6.70;;;;;;;;;;5108051;28;20089;-77
2022/06/10 10:32:58;;;;;;;14.98;7.05;;;;;;;;;;5105910;27;20655;-77
2022/06/10 10:35:26;;;;;;;13.60;7.13;;;;;;;;;;5106346;28;20047;-78
2022/06/10 10:38:04;;;;;;;11.80;6.47;;;;;;;;;;5089077;27;20048;-77
2022/06/10 10:40:34;;;;;;;11.02;6.95;;;;;;;;;;5112527;27;20395;-79
2022/06/10 10:43:03;;;;;;;13.43;6.10;;;;;;;;;;5122099;27;20296;-77
2022/06/10 10:45:32;;;;;;;12.27;6.53;;;;;;;;;;5111261;27;20499;-78
2022/06/10 10:48:00;;;;;;;12.90;6.50;;;;;;;;;;5108169;28;20185;-77
2022/06/10 10:50:31;;;;;;;12.05;6.15;;;;;;;;;;5108202;28;20093;-77
2022/06/10 10:52:57;;;;;;;13.20;6.60;;;;;;;;;;5106691;28;20039;-77
2022/06/10 10:55:38;;;;;;;12.70;6.05;;;;;;;;;;5091621;28;20043;-77
2022/06/10 10:58:14;;;;;;;10.43;6.13;;;;;;;;;;5118049;27;20050;-77
2022/06/10 11:00:42;;;;;;;11.07;6.28;;;;;;;;;;5116800;27;20039;-77
2022/06/10 11:03:23;;;;;;;15.75;6.95;;;;;;;;;;5125736;27;20455;-77
2022/06/10 11:05:49;;;;;;;11.25;5.90;;;;;;;;;;5114990;27;20062;-77
2022/06/10 11:08:19;;;;;;;11.50;5.68;;;;;;;;;;5117978;27;20542;-77
2022/06/10 11:10:52;;;;;;;10.45;5.60;;;;;;;;;;5122076;27;20440;-77
2022/06/10 11:13:20;;;;;;;13.00;6.43;;;;;;;;;;5124800;27;20043;-77
2022/06/10 11:15:48;;;;;;;12.95;6.70;;;;;;;;;;5099055;27;20296;-77
2022/06/10 11:18:14;;;;;;;9.45;5.82;;;;;;;;;;5116335;27;20048;-77
2022/06/10 11:20:41;;;;;;;10.40;5.75;;;;;;;;;;5124350;27;20390;-77
2022/06/10 11:23:10;;;;;;;10.95;6.65;;;;;;;;;;5111992;27;20047;-77
2022/06/10 11:25:37;;;;;;;13.63;6.35;;;;;;;;;;5120497;27;20089;-77
2022/06/10 11:28:05;;;;;;;9.77;5.68;;;;;;;;;;5102645;27;20091;-77
2022/06/10 11:30:37;;;;;;;10.63;5.70;;;;;;;;;;5112025;27;20043;-78
2022/06/10 11:33:05;;;;;;;13.60;5.65;;;;;;;;;;5096482;27;20398;-77
2022/06/10 11:35:32;;;;;;;10.25;5.82;;;;;;;;;;5119629;27;20043;-77
2022/06/10 11:38:01;;;;;;;13.63;5.72;;;;;;;;;;5120431;27;20050;-77
2022/06/10 11:40:35;;;;;;;9.02;5.20;;;;;;;;;;5111693;27;20047;-76
2022/06/10 11:43:14;;;;;;;11.88;5.55;;;;;;;;;;5123018;27;20396;-77
2022/06/10 11:45:44;;;;;;;9.15;4.75;;;;;;;;;;5118723;27;20445;-76
2022/06/10 11:48:13;;;;;;;10.07;5.50;;;;;;;;;;5112376;27;20043;-78
2022/06/10 11:50:39;;;;;;;12.90;5.07;;;;;;;;;;5124471;27;20083;-77
2022/06/10 11:53:26;;;;;;;11.52;5.45;;;;;;;;;;5115643;27;20049;-78
2022/06/10 11:59:42;;;;;;;10.50;5.10;;;;;;;;;;5114069;28;20110;-77
2022/06/10 12:01:47;;;;;;;12.00;5.03;;;;;;;;;;5109779;27;20031;-77
2022/06/10 12:04:15;;;;;;;11.57;5.20;;;;;;;;;;5118768;27;20071;-76
2022/06/10 12:06:45;;;;;;;12.65;5.20;;;;;;;;;;5111261;27;20035;-76
2022/06/10 12:09:17;;;;;;;9.88;5.43;;;;;;;;;;5106928;28;20051;-77
2022/06/10 12:11:45;;;;;;;11.13;5.45;;;;;;;;;;5107206;28;20047;-76
2022/06/10 12:14:25;;;;;;;10.48;4.65;;;;;;;;;;5089824;28;20105;-76
2022/06/10 12:17:12;;;;;;;11.52;5.28;;;;;;;;;;5089846;28;20044;-77
2022/06/10 12:19:42;;;;;;;10.73;5.03;;;;;;;;;;5093558;28;20083;-76
2022/06/10 12:22:11;;;;;;;12.00;4.55;;;;;;;;;;5090101;28;20491;-76
2022/06/10 12:24:38;;;;;;;8.00;4.50;;;;;;;;;;5104552;28;20096;-76
2022/06/10 12:27:12;;;;;;;12.32;4.43;;;;;;;;;;5108059;28;20035;-76
2022/06/10 12:29:41;;;;;;;11.35;5.18;;;;;;;;;;5106183;28;20078;-77
2022/06/10 12:32:19;;;;;;;9.50;4.47;;;;;;;;;;5089731;28;20043;-77
2022/06/10 12:34:49;;;;;;;11.38;4.85;;;;;;;;;;5105837;28;20437;-77
2022/06/10 12:37:23;;;;;;;11.15;4.85;;;;;;;;;;5087379;28;20062;-77
2022/06/10 12:39:52;;;;;;;12.45;5.10;;;;;;;;;;5107084;28;20040;-77
2022/06/10 12:42:32;;;;;;;12.05;4.93;;;;;;;;;;5104389;28;20036;-77
2022/06/10 12:44:59;;;;;;;8.82;4.38;;;;;;;;;;5104638;28;20593;-77
2022/06/10 12:47:30;;;;;;;13.32;5.30;;;;;;;;;;5106478;28;20111;-77
2022/06/10 12:49:59;;;;;;;11.05;4.55;;;;;;;;;;5106000;28;20089;-77
2022/06/10 12:52:38;;;;;;;12.00;4.40;;;;;;;;;;5106738;28;20035;-77
2022/06/10 12:55:04;;;;;;;13.10;4.60;;;;;;;;;;5105544;28;20122;-77
2022/06/10 12:57:44;;;;;;;9.55;4.30;;;;;;;;;;5108728;27;20055;-77
2022/06/10 13:00:30;;;;;;;10.15;4.60;;;;;;;;;;5110088;28;20028;-77
2022/06/10 13:03:15;;;;;;;14.88;4.72;;;;;;;;;;5091636;27;20138;-77
2022/06/10 13:05:41;;;;;;;8.52;4.30;;;;;;;;;;5093201;28;20036;-77
2022/06/10 13:08:26;;;;;;;10.70;4.32;;;;;;;;;;5092985;28;20039;-78
2022/06/10 13:10:52;;;;;;;;;;;;;;;;;;5110384;28;20113;-77
2022/06/10 13:13:43;;;;;;;9.98;4.72;;;;;;;;;;5108141;28;20440;-77
2022/06/10 13:16:28;;;;;;;10.65;4.20;;;;;;;;;;5109201;28;20067;-77
2022/06/10 13:18:56;;;;;;;10.05;4.60;;;;;;;;;;5093193;28;20043;-77
2022/06/10 13:21:27;;;;;;;11.30;4.85;;;;;;;;;;5110160;28;20036;-77
2022/06/10 13:24:00;;;;;;;10.40;4.50;;;;;;;;;;5109851;28;20067;-77
2022/06/10 13:26:27;;;;;;;9.60;4.78;;;;;;;;;;5110049;28;20035;-78
2022/06/10 13:29:03;;;;;;;12.45;5.25;;;;;;;;;;5112133;28;20057;-76
2022/06/10 13:31:29;;;;;;;12.18;5.28;;;;;;;;;;5112361;28;20591;-77
2022/06/10 13:33:57;;;;;;;8.90;4.70;;;;;;;;;;5122933;27;20100;-77
2022/06/10 13:36:25;;;;;;;12.57;5.50;;;;;;;;;;5114674;27;20522;-78
2022/06/10 13:38:53;;;;;;;9.30;5.25;;;;;;;;;;5126743;27;20039;-78
2022/06/10 13:44:21;;;;;;;12.93;5.90;;;;;;;;;;5125664;27;20047;-77
2022/06/10 13:46:47;;;;;;;11.87;5.73;;;;;;;;;;5098024;27;20039;-77
2022/06/10 13:49:19;;;;;;;13.02;6.40;;;;;;;;;;5122405;27;20830;-77
2022/06/10 13:51:51;;;;;;;10.27;5.65;;;;;;;;;;5122893;27;20092;-77
2022/06/10 13:54:31;;;;;;;10.65;5.63;;;;;;;;;;5113660;27;20424;-77
2022/06/10 13:56:59;;;;;;;11.02;6.10;;;;;;;;;;5106260;28;20071;-77
2022/06/10 13:59:32;;;;;;;13.32;7.13;;;;;;;;;;5110825;28;20043;-78
2022/06/10 14:02:00;;;;;;;11.23;5.75;;;;;;;;;;5111123;28;20067;-77
2022/06/10 14:04:31;;;;;;;10.10;5.93;;;;;;;;;;5127320;27;20074;-76
2022/06/10 14:07:02;;;;;;;11.13;5.93;;;;;;;;;;5101378;27;20035;-78
2022/06/10 14:09:33;;;;;;;8.77;5.72;;;;;;;;;;5116920;27;20135;-76
2022/06/10 14:12:02;;;;;;;11.88;6.18;;;;;;;;;;5111389;28;20092;-77
2022/06/10 14:14:29;;;;;;;9.68;5.93;;;;;;;;;;5099665;27;20031;-77
2022/06/10 14:17:19;;;;;;;11.57;5.72;;;;;;;;;;5120526;27;20035;-77
2022/06/10 14:19:53;;;;;;;9.75;6.00;;;;;;;;;;5084828;28;20123;-77
2022/06/10 14:22:22;;;;;;;8.85;5.93;;;;;;;;;;5107616;28;20519;-77
2022/06/10 14:25:07;;;;;;;11.38;6.03;;;;;;;;;;5108837;28;20035;-77
2022/06/10 14:27:34;;;;;;;11.70;6.60;;;;;;;;;;5115262;27;20058;-77
2022/06/10 14:30:01;;;;;;;10.00;6.10;;;;;;;;;;5111009;27;20046;-78
2022/06/10 14:32:32;;;;;;;9.90;5.80;;;;;;;;;;5103514;27;20118;-77
2022/06/10 14:35:17;;;;;;;12.95;6.50;;;;;;;;;;5108149;28;20048;-77
2022/06/10 14:37:43;;;;;;;;;;;;;;;;;;5125751;27;20039;-77
2022/06/10 14:40:28;;;;;;;8.05;5.68;;;;;;;;;;5111896;27;19915;-77
2022/06/10 14:43:00;;;;;;;7.65;5.20;;;;;;;;;;5125319;27;20514;-77
2022/06/10 14:45:31;;;;;;;9.45;5.70;;;;;;;;;;5112764;27;20058;-76
2022/06/10 14:48:04;;;;;;;11.20;6.00;;;;;;;;;;5123377;27;20039;-78
2022/06/10 14:50:31;;;;;;;11.38;5.80;;;;;;;;;;5107270;27;20564;-80
2022/06/10 14:52:57;;;;;;;11.20;5.57;;;;;;;;;;5110297;27;20035;-80
2022/06/10 14:55:30;;;;;;;9.30;4.55;;;;;;;;;;5108688;28;20043;-82
2022/06/10 14:57:58;;;;;;;10.45;4.25;;;;;;;;;;5108905;27;20039;-81
2022/06/10 15:00:27;;;;;;;8.27;2.97;;;;;;;;;;5110319;28;20739;-76
2022/06/10 15:02:54;;;;;;;6.47;2.58;;;;;;;;;;5090405;28;20027;-78
2022/06/10 15:08:16;;;;;;;8.23;3.17;;;;;;;;;;5118676;27;20399;-79
2022/06/10 15:10:44;;;;;;;7.22;2.78;;;;;;;;;;5113310;27;20101;-78
2022/06/10 15:13:16;;;;;;;9.40;2.83;;;;;;;;;;5125022;27;20035;-79